sensor_id;sensor_type;location;lat;lon;timestamp;temperature;humidity
29241;DHT22;16268;49.880;8.648;2022-08-20T00:01:44;22.70;99.90
29241;DHT22;16268;49.880;8.648;2022-08-20T00:04:10;22.70;99.90
29241;DHT22;16268;49.880;8.648;2022-08-20T00:06:36;22.70;99.90
29241;DHT22;16268;49.880;8.648;2022-08-20T00:09:02;22.70;99.90
29241;DHT22;16268;49.880;8.648;2022-08-20T00:11:28;22.70;99.90
29241;DHT22;16268;49.880;8.648;2022-08-20T00:13:59;22.70;99.90
29241;DHT22;16268;49.880;8.648;2022-08-20T00:16:29;22.70;99.90
29241;DHT22;16268;49.880;8.648;2022-08-20T00:19:00;22.60;99.90
29241;DHT22;16268;49.880;8.648;2022-08-20T00:21:26;22.60;99.90
29241;DHT22;16268;49.880;8.648;2022-08-20T00:23:53;22.60;99.90
29241;DHT22;16268;49.880;8.648;2022-08-20T00:26:20;22.60;99.90
29241;DHT22;16268;49.880;8.648;2022-08-20T00:28:46;22.50;99.90
29241;DHT22;16268;49.880;8.648;2022-08-20T00:31:14;22.50;99.90
29241;DHT22;16268;49.880;8.648;2022-08-20T00:33:42;22.40;99.90
29241;DHT22;16268;49.880;8.648;2022-08-20T00:36:08;22.40;99.90
29241;DHT22;16268;49.880;8.648;2022-08-20T00:38:38;22.40;99.90
29241;DHT22;16268;49.880;8.648;2022-08-20T00:41:07;22.50;99.90
29241;DHT22;16268;49.880;8.648;2022-08-20T00:43:43;22.50;99.90
29241;DHT22;16268;49.880;8.648;2022-08-20T00:46:21;22.50;99.90
29241;DHT22;16268;49.880;8.648;2022-08-20T00:48:51;22.50;99.90
29241;DHT22;16268;49.880;8.648;2022-08-20T00:51:38;22.50;99.90
29241;DHT22;16268;49.880;8.648;2022-08-20T00:54:40;22.60;99.90
29241;DHT22;16268;49.880;8.648;2022-08-20T00:57:13;22.60;99.90
29241;DHT22;16268;49.880;8.648;2022-08-20T00:59:45;22.60;99.90
29241;DHT22;16268;49.880;8.648;2022-08-20T01:02:14;22.60;99.90
29241;DHT22;16268;49.880;8.648;2022-08-20T01:04:40;22.60;99.90
29241;DHT22;16268;49.880;8.648;2022-08-20T01:07:09;22.60;99.90
29241;DHT22;16268;49.880;8.648;2022-08-20T01:09:36;22.60;99.90
29241;DHT22;16268;49.880;8.648;2022-08-20T01:12:03;22.60;99.90
29241;DHT22;16268;49.880;8.648;2022-08-20T01:14:29;22.60;99.90
29241;DHT22;16268;49.880;8.648;2022-08-20T01:17:03;22.60;99.90
29241;DHT22;16268;49.880;8.648;2022-08-20T01:19:37;22.60;99.90
29241;DHT22;16268;49.880;8.648;2022-08-20T01:22:04;22.70;99.90
29241;DHT22;16268;49.880;8.648;2022-08-20T01:24:56;22.60;99.90
29241;DHT22;16268;49.880;8.648;2022-08-20T01:27:28;22.60;99.90
29241;DHT22;16268;49.880;8.648;2022-08-20T01:29:54;22.60;99.90
29241;DHT22;16268;49.880;8.648;2022-08-20T01:32:19;22.60;99.90
29241;DHT22;16268;49.880;8.648;2022-08-20T01:34:45;22.50;99.90
29241;DHT22;16268;49.880;8.648;2022-08-20T01:37:10;22.40;99.90
29241;DHT22;16268;49.880;8.648;2022-08-20T01:39:36;22.40;99.90
29241;DHT22;16268;49.880;8.648;2022-08-20T01:42:24;22.40;99.90
29241;DHT22;16268;49.880;8.648;2022-08-20T01:44:51;22.40;99.90
29241;DHT22;16268;49.880;8.648;2022-08-20T01:47:24;22.40;99.90
29241;DHT22;16268;49.880;8.648;2022-08-20T01:49:55;22.30;99.90
29241;DHT22;16268;49.880;8.648;2022-08-20T01:52:51;22.40;99.90
29241;DHT22;16268;49.880;8.648;2022-08-20T01:55:19;22.40;99.90
29241;DHT22;16268;49.880;8.648;2022-08-20T01:57:45;22.50;99.90
29241;DHT22;16268;49.880;8.648;2022-08-20T02:00:14;22.50;99.90
29241;DHT22;16268;49.880;8.648;2022-08-20T02:02:40;22.50;99.90
29241;DHT22;16268;49.880;8.648;2022-08-20T02:05:06;22.60;99.90
29241;DHT22;16268;49.880;8.648;2022-08-20T02:07:32;22.50;99.90
29241;DHT22;16268;49.880;8.648;2022-08-20T02:09:58;22.50;99.90
29241;DHT22;16268;49.880;8.648;2022-08-20T02:12:24;22.40;99.90
29241;DHT22;16268;49.880;8.648;2022-08-20T02:14:52;22.40;99.90
29241;DHT22;16268;49.880;8.648;2022-08-20T02:17:20;22.40;99.90
29241;DHT22;16268;49.880;8.648;2022-08-20T02:19:54;22.40;99.90
29241;DHT22;16268;49.880;8.648;2022-08-20T02:24:53;22.30;99.90
29241;DHT22;16268;49.880;8.648;2022-08-20T02:27:19;22.30;99.90
29241;DHT22;16268;49.880;8.648;2022-08-20T02:29:48;22.30;99.90
29241;DHT22;16268;49.880;8.648;2022-08-20T02:32:14;22.30;99.90
29241;DHT22;16268;49.880;8.648;2022-08-20T02:34:40;22.40;99.90
29241;DHT22;16268;49.880;8.648;2022-08-20T02:37:06;22.40;99.90
29241;DHT22;16268;49.880;8.648;2022-08-20T02:39:32;22.40;99.90
29241;DHT22;16268;49.880;8.648;2022-08-20T02:41:59;22.40;99.90
29241;DHT22;16268;49.880;8.648;2022-08-20T02:44:27;22.40;99.90
29241;DHT22;16268;49.880;8.648;2022-08-20T02:46:53;22.50;99.90
29241;DHT22;16268;49.880;8.648;2022-08-20T02:49:19;22.40;99.90
29241;DHT22;16268;49.880;8.648;2022-08-20T02:51:45;22.50;99.90
29241;DHT22;16268;49.880;8.648;2022-08-20T02:54:12;22.50;99.90
29241;DHT22;16268;49.880;8.648;2022-08-20T02:56:37;22.50;99.90
29241;DHT22;16268;49.880;8.648;2022-08-20T02:59:03;22.50;99.90
29241;DHT22;16268;49.880;8.648;2022-08-20T03:01:29;22.50;99.90
29241;DHT22;16268;49.880;8.648;2022-08-20T03:03:56;22.50;99.90
29241;DHT22;16268;49.880;8.648;2022-08-20T03:06:24;22.50;99.90
29241;DHT22;16268;49.880;8.648;2022-08-20T03:08:49;22.50;99.90
29241;DHT22;16268;49.880;8.648;2022-08-20T03:11:16;22.50;99.90
29241;DHT22;16268;49.880;8.648;2022-08-20T03:13:41;22.50;99.90
29241;DHT22;16268;49.880;8.648;2022-08-20T03:16:07;22.50;99.90
29241;DHT22;16268;49.880;8.648;2022-08-20T03:18:43;22.50;99.90
29241;DHT22;16268;49.880;8.648;2022-08-20T03:21:10;22.50;99.90
29241;DHT22;16268;49.880;8.648;2022-08-20T03:23:36;22.50;99.90
29241;DHT22;16268;49.880;8.648;2022-08-20T03:26:05;22.50;99.90
29241;DHT22;16268;49.880;8.648;2022-08-20T03:28:34;22.50;99.90
29241;DHT22;16268;49.880;8.648;2022-08-20T03:31:00;22.50;99.90
29241;DHT22;16268;49.880;8.648;2022-08-20T03:33:26;22.50;99.90
29241;DHT22;16268;49.880;8.648;2022-08-20T03:35:52;22.50;99.90
29241;DHT22;16268;49.880;8.648;2022-08-20T03:38:21;22.50;99.90
29241;DHT22;16268;49.880;8.648;2022-08-20T03:40:48;22.40;99.90
29241;DHT22;16268;49.880;8.648;2022-08-20T03:43:14;22.40;99.90
29241;DHT22;16268;49.880;8.648;2022-08-20T03:45:42;22.40;99.90
29241;DHT22;16268;49.880;8.648;2022-08-20T03:48:10;22.40;99.90
29241;DHT22;16268;49.880;8.648;2022-08-20T03:50:36;22.40;99.90
29241;DHT22;16268;49.880;8.648;2022-08-20T03:53:02;22.40;99.90
29241;DHT22;16268;49.880;8.648;2022-08-20T03:55:29;22.40;99.90
29241;DHT22;16268;49.880;8.648;2022-08-20T03:58:00;22.40;99.90
29241;DHT22;16268;49.880;8.648;2022-08-20T04:00:33;22.30;99.90
29241;DHT22;16268;49.880;8.648;2022-08-20T04:02:59;22.30;99.90
29241;DHT22;16268;49.880;8.648;2022-08-20T04:05:27;22.20;99.90
29241;DHT22;16268;49.880;8.648;2022-08-20T04:07:53;22.10;99.90
29241;DHT22;16268;49.880;8.648;2022-08-20T04:10:19;22.10;99.90
29241;DHT22;16268;49.880;8.648;2022-08-20T04:12:45;22.10;99.90
29241;DHT22;16268;49.880;8.648;2022-08-20T04:15:13;22.10;99.90
29241;DHT22;16268;49.880;8.648;2022-08-20T04:17:44;22.10;99.90
29241;DHT22;16268;49.880;8.648;2022-08-20T04:20:13;22.00;99.90
29241;DHT22;16268;49.880;8.648;2022-08-20T04:22:40;22.10;99.90
29241;DHT22;16268;49.880;8.648;2022-08-20T04:25:06;22.00;99.90
29241;DHT22;16268;49.880;8.648;2022-08-20T04:27:36;22.00;99.90
29241;DHT22;16268;49.880;8.648;2022-08-20T04:30:03;22.00;99.90
29241;DHT22;16268;49.880;8.648;2022-08-20T04:32:29;22.00;99.90
29241;DHT22;16268;49.880;8.648;2022-08-20T04:34:55;21.90;99.90
29241;DHT22;16268;49.880;8.648;2022-08-20T04:37:22;21.90;99.90
29241;DHT22;16268;49.880;8.648;2022-08-20T04:39:48;22.00;99.90
29241;DHT22;16268;49.880;8.648;2022-08-20T04:42:36;22.00;99.90
29241;DHT22;16268;49.880;8.648;2022-08-20T04:45:03;22.00;99.90
29241;DHT22;16268;49.880;8.648;2022-08-20T04:47:31;22.00;99.90
29241;DHT22;16268;49.880;8.648;2022-08-20T04:49:56;22.10;99.90
29241;DHT22;16268;49.880;8.648;2022-08-20T04:52:25;22.00;99.90
29241;DHT22;16268;49.880;8.648;2022-08-20T04:54:51;22.00;99.90
29241;DHT22;16268;49.880;8.648;2022-08-20T04:57:16;22.10;99.90
29241;DHT22;16268;49.880;8.648;2022-08-20T04:59:43;22.10;99.90
29241;DHT22;16268;49.880;8.648;2022-08-20T05:02:09;22.10;99.90
29241;DHT22;16268;49.880;8.648;2022-08-20T05:04:35;22.10;99.90
29241;DHT22;16268;49.880;8.648;2022-08-20T05:07:01;22.20;99.90
29241;DHT22;16268;49.880;8.648;2022-08-20T05:09:27;22.20;99.90
29241;DHT22;16268;49.880;8.648;2022-08-20T05:11:52;22.10;99.90
29241;DHT22;16268;49.880;8.648;2022-08-20T05:14:18;22.20;99.90
29241;DHT22;16268;49.880;8.648;2022-08-20T05:16:44;22.20;99.90
29241;DHT22;16268;49.880;8.648;2022-08-20T05:19:11;22.20;99.90
29241;DHT22;16268;49.880;8.648;2022-08-20T05:21:37;22.30;99.90
29241;DHT22;16268;49.880;8.648;2022-08-20T05:24:04;22.30;99.90
29241;DHT22;16268;49.880;8.648;2022-08-20T05:26:30;22.40;99.90
29241;DHT22;16268;49.880;8.648;2022-08-20T05:28:55;22.30;99.90
29241;DHT22;16268;49.880;8.648;2022-08-20T05:31:21;22.30;99.90
29241;DHT22;16268;49.880;8.648;2022-08-20T05:33:46;22.30;99.90
29241;DHT22;16268;49.880;8.648;2022-08-20T05:36:16;22.30;99.90
29241;DHT22;16268;49.880;8.648;2022-08-20T05:38:41;22.30;99.90
29241;DHT22;16268;49.880;8.648;2022-08-20T05:41:06;22.30;99.90
29241;DHT22;16268;49.880;8.648;2022-08-20T05:43:32;22.30;99.90
29241;DHT22;16268;49.880;8.648;2022-08-20T05:45:58;22.40;99.90
29241;DHT22;16268;49.880;8.648;2022-08-20T05:48:25;22.40;99.90
29241;DHT22;16268;49.880;8.648;2022-08-20T05:50:52;22.50;99.90
29241;DHT22;16268;49.880;8.648;2022-08-20T05:53:19;22.60;99.90
29241;DHT22;16268;49.880;8.648;2022-08-20T05:55:45;22.70;99.90
29241;DHT22;16268;49.880;8.648;2022-08-20T05:58:17;22.80;99.90
29241;DHT22;16268;49.880;8.648;2022-08-20T06:00:44;22.70;99.90
29241;DHT22;16268;49.880;8.648;2022-08-20T06:03:09;22.70;99.90
29241;DHT22;16268;49.880;8.648;2022-08-20T06:05:53;22.70;99.90
29241;DHT22;16268;49.880;8.648;2022-08-20T06:08:19;22.80;99.90
29241;DHT22;16268;49.880;8.648;2022-08-20T06:10:45;22.80;99.90
29241;DHT22;16268;49.880;8.648;2022-08-20T06:13:10;22.80;99.90
29241;DHT22;16268;49.880;8.648;2022-08-20T06:15:36;22.80;99.90
29241;DHT22;16268;49.880;8.648;2022-08-20T06:18:05;22.80;99.90
29241;DHT22;16268;49.880;8.648;2022-08-20T06:20:32;22.70;99.90
29241;DHT22;16268;49.880;8.648;2022-08-20T06:22:58;22.70;99.90
29241;DHT22;16268;49.880;8.648;2022-08-20T06:25:23;22.70;99.90
29241;DHT22;16268;49.880;8.648;2022-08-20T06:27:49;22.70;99.90
29241;DHT22;16268;49.880;8.648;2022-08-20T06:30:15;22.70;99.90
29241;DHT22;16268;49.880;8.648;2022-08-20T06:32:42;22.70;99.90
29241;DHT22;16268;49.880;8.648;2022-08-20T06:35:08;22.60;99.90
29241;DHT22;16268;49.880;8.648;2022-08-20T06:37:36;22.60;99.90
29241;DHT22;16268;49.880;8.648;2022-08-20T06:40:09;22.60;99.90
29241;DHT22;16268;49.880;8.648;2022-08-20T06:42:35;22.50;99.90
29241;DHT22;16268;49.880;8.648;2022-08-20T06:45:02;22.60;99.90
29241;DHT22;16268;49.880;8.648;2022-08-20T06:47:30;22.70;99.90
29241;DHT22;16268;49.880;8.648;2022-08-20T06:49:56;22.80;99.90
29241;DHT22;16268;49.880;8.648;2022-08-20T06:52:22;23.00;99.90
29241;DHT22;16268;49.880;8.648;2022-08-20T06:54:47;23.00;99.90
29241;DHT22;16268;49.880;8.648;2022-08-20T06:57:13;22.90;99.90
29241;DHT22;16268;49.880;8.648;2022-08-20T06:59:39;22.80;99.90
29241;DHT22;16268;49.880;8.648;2022-08-20T07:02:06;22.70;99.90
29241;DHT22;16268;49.880;8.648;2022-08-20T07:04:32;22.60;99.90
29241;DHT22;16268;49.880;8.648;2022-08-20T07:06:57;22.60;99.90
29241;DHT22;16268;49.880;8.648;2022-08-20T07:09:24;22.60;99.90
29241;DHT22;16268;49.880;8.648;2022-08-20T07:11:50;22.60;99.90
29241;DHT22;16268;49.880;8.648;2022-08-20T07:14:17;22.60;99.90
29241;DHT22;16268;49.880;8.648;2022-08-20T07:16:43;22.60;99.90
29241;DHT22;16268;49.880;8.648;2022-08-20T07:19:09;22.50;99.90
29241;DHT22;16268;49.880;8.648;2022-08-20T07:21:35;22.50;99.90
29241;DHT22;16268;49.880;8.648;2022-08-20T07:24:00;22.50;99.90
29241;DHT22;16268;49.880;8.648;2022-08-20T07:26:26;22.50;99.90
29241;DHT22;16268;49.880;8.648;2022-08-20T07:28:52;22.60;99.90
29241;DHT22;16268;49.880;8.648;2022-08-20T07:31:17;22.50;99.90
29241;DHT22;16268;49.880;8.648;2022-08-20T07:34:02;22.40;99.90
29241;DHT22;16268;49.880;8.648;2022-08-20T07:36:28;22.40;99.90
29241;DHT22;16268;49.880;8.648;2022-08-20T07:38:54;22.50;99.90
29241;DHT22;16268;49.880;8.648;2022-08-20T07:41:19;22.60;99.90
29241;DHT22;16268;49.880;8.648;2022-08-20T07:43:45;22.60;99.90
29241;DHT22;16268;49.880;8.648;2022-08-20T07:46:16;22.60;99.90
29241;DHT22;16268;49.880;8.648;2022-08-20T07:48:44;22.70;99.90
29241;DHT22;16268;49.880;8.648;2022-08-20T07:51:12;22.80;99.90
29241;DHT22;16268;49.880;8.648;2022-08-20T07:53:40;23.00;99.90
29241;DHT22;16268;49.880;8.648;2022-08-20T07:56:08;23.40;99.90
29241;DHT22;16268;49.880;8.648;2022-08-20T07:58:36;23.70;99.90
29241;DHT22;16268;49.880;8.648;2022-08-20T08:01:06;23.90;99.90
29241;DHT22;16268;49.880;8.648;2022-08-20T08:03:32;23.60;99.90
29241;DHT22;16268;49.880;8.648;2022-08-20T08:05:58;23.60;99.90
29241;DHT22;16268;49.880;8.648;2022-08-20T08:08:26;23.80;99.90
29241;DHT22;16268;49.880;8.648;2022-08-20T08:10:56;24.00;99.90
29241;DHT22;16268;49.880;8.648;2022-08-20T08:13:23;24.10;99.90
29241;DHT22;16268;49.880;8.648;2022-08-20T08:15:53;24.40;99.90
29241;DHT22;16268;49.880;8.648;2022-08-20T08:18:27;24.70;99.90
29241;DHT22;16268;49.880;8.648;2022-08-20T08:20:54;24.70;99.90
29241;DHT22;16268;49.880;8.648;2022-08-20T08:23:21;24.80;99.90
29241;DHT22;16268;49.880;8.648;2022-08-20T08:25:47;25.20;99.90
29241;DHT22;16268;49.880;8.648;2022-08-20T08:28:13;25.60;99.90
29241;DHT22;16268;49.880;8.648;2022-08-20T08:30:41;25.90;99.90
29241;DHT22;16268;49.880;8.648;2022-08-20T08:33:16;25.90;99.90
29241;DHT22;16268;49.880;8.648;2022-08-20T08:35:56;26.20;99.90
29241;DHT22;16268;49.880;8.648;2022-08-20T08:38:23;26.00;99.90
29241;DHT22;16268;49.880;8.648;2022-08-20T08:40:54;26.40;99.90
29241;DHT22;16268;49.880;8.648;2022-08-20T08:43:22;26.70;99.90
29241;DHT22;16268;49.880;8.648;2022-08-20T08:45:59;26.90;99.90
29241;DHT22;16268;49.880;8.648;2022-08-20T08:48:36;27.20;99.90
29241;DHT22;16268;49.880;8.648;2022-08-20T08:51:05;27.60;99.90
29241;DHT22;16268;49.880;8.648;2022-08-20T08:53:39;28.10;99.90
29241;DHT22;16268;49.880;8.648;2022-08-20T08:56:07;28.90;99.90
29241;DHT22;16268;49.880;8.648;2022-08-20T08:58:33;29.10;99.90
29241;DHT22;16268;49.880;8.648;2022-08-20T09:01:08;29.20;99.90
29241;DHT22;16268;49.880;8.648;2022-08-20T09:03:37;29.50;99.90
29241;DHT22;16268;49.880;8.648;2022-08-20T09:06:04;29.30;99.90
29241;DHT22;16268;49.880;8.648;2022-08-20T09:08:39;29.50;99.90
29241;DHT22;16268;49.880;8.648;2022-08-20T09:11:07;29.00;99.90
29241;DHT22;16268;49.880;8.648;2022-08-20T09:13:33;28.80;99.90
29241;DHT22;16268;49.880;8.648;2022-08-20T09:15:59;28.90;99.90
29241;DHT22;16268;49.880;8.648;2022-08-20T09:18:25;29.60;99.90
29241;DHT22;16268;49.880;8.648;2022-08-20T09:20:51;29.30;99.90
29241;DHT22;16268;49.880;8.648;2022-08-20T09:23:17;29.40;99.90
29241;DHT22;16268;49.880;8.648;2022-08-20T09:25:42;29.80;99.90
29241;DHT22;16268;49.880;8.648;2022-08-20T09:28:08;29.90;99.90
29241;DHT22;16268;49.880;8.648;2022-08-20T09:30:34;30.30;99.90
29241;DHT22;16268;49.880;8.648;2022-08-20T09:33:00;30.40;99.90
29241;DHT22;16268;49.880;8.648;2022-08-20T09:35:26;30.80;99.90
29241;DHT22;16268;49.880;8.648;2022-08-20T09:37:52;30.70;99.90
29241;DHT22;16268;49.880;8.648;2022-08-20T09:40:18;30.60;99.90
29241;DHT22;16268;49.880;8.648;2022-08-20T09:42:44;30.60;99.90
29241;DHT22;16268;49.880;8.648;2022-08-20T09:45:10;30.30;99.90
29241;DHT22;16268;49.880;8.648;2022-08-20T09:47:36;30.40;99.90
29241;DHT22;16268;49.880;8.648;2022-08-20T09:50:02;30.50;99.90
29241;DHT22;16268;49.880;8.648;2022-08-20T09:52:32;30.60;99.90
29241;DHT22;16268;49.880;8.648;2022-08-20T09:55:00;30.70;99.90
29241;DHT22;16268;49.880;8.648;2022-08-20T09:57:27;30.80;99.90
29241;DHT22;16268;49.880;8.648;2022-08-20T10:00:00;30.90;99.90
29241;DHT22;16268;49.880;8.648;2022-08-20T10:02:27;30.80;99.90
29241;DHT22;16268;49.880;8.648;2022-08-20T10:04:52;31.10;99.90
29241;DHT22;16268;49.880;8.648;2022-08-20T10:07:18;31.50;99.50
29241;DHT22;16268;49.880;8.648;2022-08-20T10:09:43;31.40;97.50
29241;DHT22;16268;49.880;8.648;2022-08-20T10:12:09;30.90;98.40
29241;DHT22;16268;49.880;8.648;2022-08-20T10:14:34;30.30;99.00
29241;DHT22;16268;49.880;8.648;2022-08-20T10:17:01;29.40;99.90
29241;DHT22;16268;49.880;8.648;2022-08-20T10:19:29;29.40;99.90
29241;DHT22;16268;49.880;8.648;2022-08-20T10:21:56;29.60;99.90
29241;DHT22;16268;49.880;8.648;2022-08-20T10:24:22;29.70;99.90
29241;DHT22;16268;49.880;8.648;2022-08-20T10:26:57;30.10;99.80
29241;DHT22;16268;49.880;8.648;2022-08-20T10:29:23;30.40;97.60
29241;DHT22;16268;49.880;8.648;2022-08-20T10:31:53;30.50;96.70
29241;DHT22;16268;49.880;8.648;2022-08-20T10:34:19;30.50;95.40
29241;DHT22;16268;49.880;8.648;2022-08-20T10:36:45;30.50;95.50
29241;DHT22;16268;49.880;8.648;2022-08-20T10:39:11;30.50;95.00
29241;DHT22;16268;49.880;8.648;2022-08-20T10:41:37;30.50;95.60
29241;DHT22;16268;49.880;8.648;2022-08-20T10:44:04;30.70;95.40
29241;DHT22;16268;49.880;8.648;2022-08-20T10:46:29;30.60;94.40
29241;DHT22;16268;49.880;8.648;2022-08-20T10:48:55;30.40;94.90
29241;DHT22;16268;49.880;8.648;2022-08-20T10:51:21;30.30;95.00
29241;DHT22;16268;49.880;8.648;2022-08-20T10:53:46;30.00;95.50
29241;DHT22;16268;49.880;8.648;2022-08-20T10:56:12;29.60;95.60
29241;DHT22;16268;49.880;8.648;2022-08-20T10:58:37;29.20;97.50
29241;DHT22;16268;49.880;8.648;2022-08-20T11:01:03;29.20;97.30
29241;DHT22;16268;49.880;8.648;2022-08-20T11:03:29;29.10;96.50
29241;DHT22;16268;49.880;8.648;2022-08-20T11:05:56;29.00;96.30
29241;DHT22;16268;49.880;8.648;2022-08-20T11:08:21;28.90;97.60
29241;DHT22;16268;49.880;8.648;2022-08-20T11:10:47;29.00;97.70
29241;DHT22;16268;49.880;8.648;2022-08-20T11:13:12;29.40;96.50
29241;DHT22;16268;49.880;8.648;2022-08-20T11:15:40;29.60;96.10
29241;DHT22;16268;49.880;8.648;2022-08-20T11:18:07;29.70;95.70
29241;DHT22;16268;49.880;8.648;2022-08-20T11:20:33;29.90;93.80
29241;DHT22;16268;49.880;8.648;2022-08-20T11:23:00;30.10;93.10
29241;DHT22;16268;49.880;8.648;2022-08-20T11:25:27;30.00;93.60
29241;DHT22;16268;49.880;8.648;2022-08-20T11:27:53;30.00;92.70
29241;DHT22;16268;49.880;8.648;2022-08-20T11:30:31;30.00;92.40
29241;DHT22;16268;49.880;8.648;2022-08-20T11:32:59;30.10;92.30
29241;DHT22;16268;49.880;8.648;2022-08-20T11:35:29;29.90;91.60
29241;DHT22;16268;49.880;8.648;2022-08-20T11:37:57;29.80;92.10
29241;DHT22;16268;49.880;8.648;2022-08-20T11:40:24;29.80;91.30
29241;DHT22;16268;49.880;8.648;2022-08-20T11:42:53;29.70;90.70
29241;DHT22;16268;49.880;8.648;2022-08-20T11:45:18;29.80;91.30
29241;DHT22;16268;49.880;8.648;2022-08-20T11:47:44;30.00;91.20
29241;DHT22;16268;49.880;8.648;2022-08-20T11:50:15;30.10;90.70
29241;DHT22;16268;49.880;8.648;2022-08-20T11:52:41;30.30;90.10
29241;DHT22;16268;49.880;8.648;2022-08-20T11:55:10;30.30;90.10
29241;DHT22;16268;49.880;8.648;2022-08-20T11:57:39;30.10;89.10
29241;DHT22;16268;49.880;8.648;2022-08-20T12:00:06;30.10;89.80
29241;DHT22;16268;49.880;8.648;2022-08-20T12:02:35;30.10;89.30
29241;DHT22;16268;49.880;8.648;2022-08-20T12:05:00;30.00;87.50
29241;DHT22;16268;49.880;8.648;2022-08-20T12:07:26;30.00;89.30
29241;DHT22;16268;49.880;8.648;2022-08-20T12:09:52;29.80;87.10
29241;DHT22;16268;49.880;8.648;2022-08-20T12:12:19;30.00;86.30
29241;DHT22;16268;49.880;8.648;2022-08-20T12:14:45;30.00;84.60
29241;DHT22;16268;49.880;8.648;2022-08-20T12:17:17;30.00;85.20
29241;DHT22;16268;49.880;8.648;2022-08-20T12:19:45;30.10;83.80
29241;DHT22;16268;49.880;8.648;2022-08-20T12:22:11;30.00;83.30
29241;DHT22;16268;49.880;8.648;2022-08-20T12:24:37;29.80;85.10
29241;DHT22;16268;49.880;8.648;2022-08-20T12:29:36;29.80;85.70
29241;DHT22;16268;49.880;8.648;2022-08-20T12:32:02;29.80;85.40
29241;DHT22;16268;49.880;8.648;2022-08-20T12:34:30;29.80;86.10
29241;DHT22;16268;49.880;8.648;2022-08-20T12:37:03;29.70;86.60
29241;DHT22;16268;49.880;8.648;2022-08-20T12:39:30;29.70;87.10
29241;DHT22;16268;49.880;8.648;2022-08-20T12:41:58;29.80;86.80
29241;DHT22;16268;49.880;8.648;2022-08-20T12:44:28;29.80;86.60
29241;DHT22;16268;49.880;8.648;2022-08-20T12:47:13;29.90;85.70
29241;DHT22;16268;49.880;8.648;2022-08-20T12:49:41;30.00;85.20
29241;DHT22;16268;49.880;8.648;2022-08-20T12:52:08;30.00;83.80
29241;DHT22;16268;49.880;8.648;2022-08-20T12:54:34;30.10;81.70
29241;DHT22;16268;49.880;8.648;2022-08-20T12:57:00;30.10;83.30
29241;DHT22;16268;49.880;8.648;2022-08-20T12:59:25;30.10;83.50
29241;DHT22;16268;49.880;8.648;2022-08-20T13:01:52;30.30;83.20
29241;DHT22;16268;49.880;8.648;2022-08-20T13:04:18;30.40;83.80
29241;DHT22;16268;49.880;8.648;2022-08-20T13:06:44;30.60;82.90
29241;DHT22;16268;49.880;8.648;2022-08-20T13:09:11;30.80;82.90
29241;DHT22;16268;49.880;8.648;2022-08-20T13:11:36;30.80;81.60
29241;DHT22;16268;49.880;8.648;2022-08-20T13:14:02;30.90;82.10
29241;DHT22;16268;49.880;8.648;2022-08-20T13:16:27;31.00;82.20
29241;DHT22;16268;49.880;8.648;2022-08-20T13:18:53;30.80;81.50
29241;DHT22;16268;49.880;8.648;2022-08-20T13:21:18;30.50;81.40
29241;DHT22;16268;49.880;8.648;2022-08-20T13:23:44;30.20;80.30
29241;DHT22;16268;49.880;8.648;2022-08-20T13:26:09;30.10;79.50
29241;DHT22;16268;49.880;8.648;2022-08-20T13:28:35;30.10;81.00
29241;DHT22;16268;49.880;8.648;2022-08-20T13:31:01;30.10;80.90
29241;DHT22;16268;49.880;8.648;2022-08-20T13:33:28;30.20;79.30
29241;DHT22;16268;49.880;8.648;2022-08-20T13:35:54;30.30;78.40
29241;DHT22;16268;49.880;8.648;2022-08-20T13:38:20;30.20;78.30
29241;DHT22;16268;49.880;8.648;2022-08-20T13:40:46;30.20;78.40
29241;DHT22;16268;49.880;8.648;2022-08-20T13:43:12;30.00;79.80
29241;DHT22;16268;49.880;8.648;2022-08-20T13:45:38;29.80;80.20
29241;DHT22;16268;49.880;8.648;2022-08-20T13:48:04;29.80;80.30
29241;DHT22;16268;49.880;8.648;2022-08-20T13:50:30;29.80;80.10
29241;DHT22;16268;49.880;8.648;2022-08-20T13:52:56;29.70;80.60
29241;DHT22;16268;49.880;8.648;2022-08-20T13:55:23;29.70;81.90
29241;DHT22;16268;49.880;8.648;2022-08-20T13:57:50;29.80;79.80
29241;DHT22;16268;49.880;8.648;2022-08-20T14:00:23;30.00;74.80
29241;DHT22;16268;49.880;8.648;2022-08-20T14:02:51;30.00;68.60
29241;DHT22;16268;49.880;8.648;2022-08-20T14:05:17;30.00;66.70
29241;DHT22;16268;49.880;8.648;2022-08-20T14:07:43;30.00;71.10
29241;DHT22;16268;49.880;8.648;2022-08-20T14:10:13;30.00;71.80
29241;DHT22;16268;49.880;8.648;2022-08-20T14:12:39;30.00;71.70
29241;DHT22;16268;49.880;8.648;2022-08-20T14:15:05;30.00;70.60
29241;DHT22;16268;49.880;8.648;2022-08-20T14:17:34;30.10;69.90
29241;DHT22;16268;49.880;8.648;2022-08-20T14:22:33;30.00;69.40
29241;DHT22;16268;49.880;8.648;2022-08-20T14:24:59;30.00;69.90
29241;DHT22;16268;49.880;8.648;2022-08-20T14:27:29;30.10;69.00
29241;DHT22;16268;49.880;8.648;2022-08-20T14:29:56;30.20;66.80
29241;DHT22;16268;49.880;8.648;2022-08-20T14:32:21;30.30;65.30
29241;DHT22;16268;49.880;8.648;2022-08-20T14:34:47;30.30;66.20
29241;DHT22;16268;49.880;8.648;2022-08-20T14:37:17;30.30;65.40
29241;DHT22;16268;49.880;8.648;2022-08-20T14:39:45;30.20;65.80
29241;DHT22;16268;49.880;8.648;2022-08-20T14:42:11;30.30;65.40
29241;DHT22;16268;49.880;8.648;2022-08-20T14:44:37;30.30;64.80
29241;DHT22;16268;49.880;8.648;2022-08-20T14:47:15;30.30;64.40
29241;DHT22;16268;49.880;8.648;2022-08-20T14:49:41;30.10;65.00
29241;DHT22;16268;49.880;8.648;2022-08-20T14:52:07;30.20;65.50
29241;DHT22;16268;49.880;8.648;2022-08-20T14:54:33;30.10;64.40
29241;DHT22;16268;49.880;8.648;2022-08-20T14:57:00;30.00;64.90
29241;DHT22;16268;49.880;8.648;2022-08-20T14:59:25;30.10;61.70
29241;DHT22;16268;49.880;8.648;2022-08-20T15:01:51;30.10;61.90
29241;DHT22;16268;49.880;8.648;2022-08-20T15:04:17;30.10;61.30
29241;DHT22;16268;49.880;8.648;2022-08-20T15:06:44;30.20;59.30
29241;DHT22;16268;49.880;8.648;2022-08-20T15:09:10;30.10;58.70
29241;DHT22;16268;49.880;8.648;2022-08-20T15:11:35;30.10;58.10
29241;DHT22;16268;49.880;8.648;2022-08-20T15:14:04;30.00;58.30
29241;DHT22;16268;49.880;8.648;2022-08-20T15:16:29;29.90;58.20
29241;DHT22;16268;49.880;8.648;2022-08-20T15:18:55;29.70;57.50
29241;DHT22;16268;49.880;8.648;2022-08-20T15:21:20;29.60;57.10
29241;DHT22;16268;49.880;8.648;2022-08-20T15:23:46;29.60;57.40
29241;DHT22;16268;49.880;8.648;2022-08-20T15:26:11;29.60;57.20
29241;DHT22;16268;49.880;8.648;2022-08-20T15:28:38;29.60;56.20
29241;DHT22;16268;49.880;8.648;2022-08-20T15:31:08;29.60;56.70
29241;DHT22;16268;49.880;8.648;2022-08-20T15:33:34;29.60;54.50
29241;DHT22;16268;49.880;8.648;2022-08-20T15:36:00;29.50;53.80
29241;DHT22;16268;49.880;8.648;2022-08-20T15:38:25;29.30;53.80
29241;DHT22;16268;49.880;8.648;2022-08-20T15:40:51;29.10;54.10